createdAt,value
2018-09-26T00:02:26.748Z,100204.46
2018-09-26T00:04:55.129Z,100201.78
2018-09-26T00:07:23.527Z,100202.73
2018-09-26T00:09:51.877Z,100197.61
2018-09-26T00:12:20.352Z,100208.42
2018-09-26T00:14:48.689Z,100202.84
2018-09-26T00:17:17.098Z,100200.00
2018-09-26T00:19:45.500Z,100199.24
2018-09-26T00:22:13.885Z,100203.00
2018-09-26T00:24:42.237Z,100208.33
2018-09-26T00:27:11.155Z,100194.92
2018-09-26T00:29:39.528Z,100183.63
2018-09-26T00:32:07.831Z,100172.63
2018-09-26T00:34:36.163Z,100166.84
2018-09-26T00:37:04.566Z,100165.86
2018-09-26T00:39:33.113Z,100168.41
2018-09-26T00:42:01.554Z,100162.44
2018-09-26T00:44:30.127Z,100170.23
2018-09-26T00:46:58.612Z,100166.58
2018-09-26T00:49:26.955Z,100156.19
2018-09-26T00:51:55.381Z,100155.53
2018-09-26T00:54:23.898Z,100144.81
2018-09-26T00:56:53.318Z,100134.45
2018-09-26T00:59:21.564Z,100112.91
2018-09-26T01:01:50.016Z,100107.77
2018-09-26T01:04:18.312Z,100105.83
2018-09-26T01:06:46.640Z,100108.18
2018-09-26T01:09:14.971Z,100114.83
2018-09-26T01:11:43.428Z,100118.66
2018-09-26T01:14:11.732Z,100123.02
2018-09-26T01:16:40.264Z,100113.80
2018-09-26T01:19:08.658Z,100107.65
2018-09-26T01:21:36.996Z,100102.54
2018-09-26T01:24:05.340Z,100094.85
2018-09-26T01:26:33.730Z,100089.15
2018-09-26T01:29:02.034Z,100084.06
2018-09-26T01:31:30.345Z,100090.08
2018-09-26T01:33:58.668Z,100090.59
2018-09-26T01:36:27.148Z,100092.17
2018-09-26T01:38:55.571Z,100095.45
2018-09-26T01:41:24.496Z,100095.97
2018-09-26T01:43:52.801Z,100098.74
2018-09-26T01:46:21.141Z,100099.03
2018-09-26T01:48:49.520Z,100103.67
2018-09-26T01:51:17.878Z,100104.00
2018-09-26T01:53:46.322Z,100101.81
2018-09-26T01:56:14.642Z,100089.66
2018-09-26T01:58:43.680Z,100093.91
2018-09-26T02:01:12.029Z,100089.33
2018-09-26T02:03:40.384Z,100089.19
2018-09-26T02:06:08.748Z,100081.06
2018-09-26T02:08:37.151Z,100087.18
2018-09-26T02:11:05.457Z,100086.18
2018-09-26T02:13:34.035Z,100079.50
2018-09-26T02:16:02.422Z,100075.58
2018-09-26T02:18:30.849Z,100081.75
2018-09-26T02:20:59.206Z,100073.55
2018-09-26T02:23:27.558Z,100084.67
2018-09-26T02:25:56.620Z,100095.47
2018-09-26T02:28:24.981Z,100098.05
2018-09-26T02:30:53.333Z,100091.97
2018-09-26T02:33:21.678Z,100091.13
2018-09-26T02:35:50.092Z,100088.45
2018-09-26T02:38:18.519Z,100095.25
2018-09-26T02:40:46.804Z,100085.39
2018-09-26T02:43:15.158Z,100083.53
2018-09-26T02:45:43.481Z,100070.92
2018-09-26T02:48:15.974Z,100072.50
2018-09-26T02:50:44.319Z,100078.61
2018-09-26T02:53:12.639Z,100083.71
2018-09-26T02:55:41.226Z,100087.28
2018-09-26T02:58:09.663Z,100085.92
2018-09-26T03:00:37.985Z,100085.24
2018-09-26T03:03:06.293Z,100088.33
2018-09-26T03:05:34.667Z,100089.70
2018-09-26T03:08:02.988Z,100082.55
2018-09-26T03:10:31.276Z,100070.62
2018-09-26T03:12:59.726Z,100068.59
2018-09-26T03:15:28.114Z,100072.17
2018-09-26T03:17:57.035Z,100067.75
2018-09-26T03:20:25.336Z,100059.18
2018-09-26T03:22:53.815Z,100057.45
2018-09-26T03:25:22.155Z,100057.70
2018-09-26T03:27:50.476Z,100055.00
2018-09-26T03:30:18.948Z,100058.86
2018-09-26T03:32:47.437Z,100050.50
2018-09-26T03:35:15.793Z,100050.11
2018-09-26T03:37:44.156Z,100057.06
2018-09-26T03:40:12.504Z,100043.00
2018-09-26T03:42:40.911Z,100039.66
2018-09-26T03:45:09.302Z,100036.48
2018-09-26T03:47:37.648Z,100029.03
2018-09-26T03:50:06.314Z,100018.58
2018-09-26T03:52:34.648Z,100010.33
2018-09-26T03:55:02.995Z,100000.77
2018-09-26T03:57:31.312Z,99999.83
2018-09-26T03:59:59.719Z,100000.14
2018-09-26T04:02:28.033Z,99999.63
2018-09-26T04:04:56.871Z,99990.23
2018-09-26T04:07:25.353Z,99987.79
2018-09-26T04:09:53.671Z,99984.98
2018-09-26T04:12:22.761Z,99994.66
2018-09-26T04:14:51.096Z,99996.98
2018-09-26T04:17:19.460Z,99999.70
2018-09-26T04:19:47.824Z,100005.84
2018-09-26T04:22:16.260Z,100004.41
2018-09-26T04:24:44.585Z,99999.23
2018-09-26T04:27:13.021Z,100008.88
2018-09-26T04:29:41.365Z,100012.50
2018-09-26T04:32:09.760Z,100018.80
2018-09-26T04:34:38.459Z,100024.77
2018-09-26T04:37:07.112Z,100024.36
2018-09-26T04:39:35.435Z,100020.70
2018-09-26T04:42:03.755Z,100020.66
2018-09-26T04:44:32.213Z,100022.95
2018-09-26T04:47:00.791Z,100029.61
2018-09-26T04:49:29.151Z,100032.27
2018-09-26T04:51:57.599Z,100029.44
2018-09-26T04:54:26.070Z,100032.59
2018-09-26T04:56:54.547Z,100040.25
2018-09-26T04:59:22.962Z,100045.20
2018-09-26T05:01:51.402Z,100051.14
2018-09-26T05:04:19.882Z,100059.14
2018-09-26T05:06:48.263Z,100063.56
2018-09-26T05:09:16.714Z,100058.05
2018-09-26T05:11:45.008Z,100064.84
2018-09-26T05:14:13.291Z,100060.40
2018-09-26T05:16:41.730Z,100069.18
2018-09-26T05:19:10.106Z,100075.05
2018-09-26T05:21:38.720Z,100079.77
2018-09-26T05:24:07.080Z,100073.09
2018-09-26T05:26:35.462Z,100072.42
2018-09-26T05:29:03.910Z,100061.88
2018-09-26T05:31:32.588Z,100056.03
2018-09-26T05:34:00.892Z,100049.02
2018-09-26T05:36:29.270Z,100048.83
2018-09-26T05:38:57.788Z,100045.02
2018-09-26T05:41:26.153Z,100035.32
2018-09-26T05:43:54.545Z,100022.53
2018-09-26T05:46:22.967Z,100017.13
2018-09-26T05:48:51.325Z,100016.45
2018-09-26T05:51:19.716Z,100022.33
2018-09-26T06:02:20.897Z,100043.22
2018-09-26T06:04:49.234Z,100042.34
2018-09-26T06:07:17.623Z,100039.89
2018-09-26T06:09:45.942Z,100040.32
2018-09-26T06:12:14.273Z,100044.23
2018-09-26T06:14:42.572Z,100038.89
2018-09-26T06:17:10.907Z,100042.01
2018-09-26T06:22:30.161Z,100047.31
2018-09-26T06:24:58.474Z,100061.34
2018-09-26T06:27:27.055Z,100057.20
2018-09-26T06:29:55.376Z,100065.97
2018-09-26T06:32:23.724Z,100060.83
2018-09-26T06:34:52.321Z,100060.34
2018-09-26T06:37:20.885Z,100063.41
2018-09-26T06:39:49.215Z,100058.63
2018-09-26T06:42:17.590Z,100051.42
2018-09-26T06:44:46.065Z,100052.31
2018-09-26T06:47:14.418Z,100053.56
2018-09-26T06:49:42.769Z,100059.84
2018-09-26T06:52:11.114Z,100067.40
2018-09-26T06:54:39.583Z,100062.41
2018-09-26T06:57:07.891Z,100067.63
2018-09-26T06:59:36.282Z,100075.19
2018-09-26T07:02:04.670Z,100074.58
2018-09-26T07:04:33.031Z,100075.05
2018-09-26T07:07:01.527Z,100078.11
2018-09-26T07:09:29.872Z,100079.31
2018-09-26T07:11:58.116Z,100078.52
2018-09-26T07:14:26.491Z,100070.45
2018-09-26T07:16:54.972Z,100077.05
2018-09-26T07:19:23.326Z,100075.36
2018-09-26T07:21:51.758Z,100082.81
2018-09-26T07:24:20.136Z,100081.41
2018-09-26T07:26:48.585Z,100084.45
2018-09-26T07:29:16.891Z,100082.89
2018-09-26T07:34:38.748Z,100088.23
2018-09-26T07:37:07.700Z,100094.27
2018-09-26T07:39:36.870Z,100095.55
2018-09-26T07:42:05.218Z,100103.73
2018-09-26T07:44:33.666Z,100093.71
2018-09-26T07:47:02.023Z,100094.41
2018-09-26T07:49:30.329Z,100094.94
2018-09-26T07:51:58.673Z,100096.89
2018-09-26T07:54:26.977Z,100099.23
2018-09-26T07:56:55.288Z,100101.31
2018-09-26T07:59:23.640Z,100100.29
2018-09-26T08:01:52.282Z,100101.11
2018-09-26T08:04:20.726Z,100093.59
2018-09-26T08:06:49.118Z,100079.48
2018-09-26T08:09:17.394Z,100077.80
2018-09-26T08:11:45.898Z,100084.45
2018-09-26T08:14:14.161Z,100088.37
2018-09-26T08:16:49.239Z,100087.92
2018-09-26T08:19:17.707Z,100101.67
2018-09-26T08:21:46.032Z,100095.53
2018-09-26T08:24:14.408Z,100099.56
2018-09-26T08:26:42.672Z,100101.79
2018-09-26T08:29:11.000Z,100096.11
2018-09-26T08:31:39.388Z,100099.67
2018-09-26T08:34:07.815Z,100084.40
2018-09-26T08:36:36.101Z,100086.59
2018-09-26T08:39:06.828Z,100084.46
2018-09-26T08:41:35.280Z,100084.87
2018-09-26T08:44:03.746Z,100092.75
2018-09-26T08:46:32.114Z,100091.56
2018-09-26T08:49:00.524Z,100096.59
2018-09-26T08:51:29.232Z,100091.23
2018-09-26T08:53:57.569Z,100089.08
2018-09-26T08:56:25.934Z,100094.92
2018-09-26T08:58:54.294Z,100092.00
2018-09-26T09:01:27.996Z,100091.26
2018-09-26T09:03:56.433Z,100093.27
2018-09-26T09:06:24.892Z,100092.38
2018-09-26T09:08:53.215Z,100079.94
2018-09-26T09:11:21.529Z,100087.34
2018-09-26T09:13:50.021Z,100100.69
2018-09-26T09:16:18.409Z,100108.52
2018-09-26T09:18:46.679Z,100109.27
2018-09-26T09:21:15.221Z,100108.25
2018-09-26T09:23:43.580Z,100094.81
2018-09-26T09:26:12.083Z,100087.14
2018-09-26T09:28:40.338Z,100088.59
2018-09-26T09:31:08.631Z,100097.84
2018-09-26T09:33:37.078Z,100093.57
2018-09-26T09:36:05.798Z,100088.13
2018-09-26T09:38:34.096Z,100085.20
2018-09-26T09:41:02.546Z,100081.14
2018-09-26T09:43:30.846Z,100085.34
2018-09-26T09:45:59.178Z,100085.44
2018-09-26T09:48:27.597Z,100083.81
2018-09-26T09:50:55.983Z,100082.84
2018-09-26T09:53:24.333Z,100082.05
2018-09-26T09:55:52.674Z,100088.26
2018-09-26T09:58:21.750Z,100089.52
2018-09-26T10:00:56.299Z,100091.82
2018-09-26T10:03:24.610Z,100083.96
2018-09-26T10:05:53.233Z,100081.87
2018-09-26T10:08:21.790Z,100072.11
2018-09-26T10:10:50.261Z,100074.95
2018-09-26T10:13:18.569Z,100077.15
2018-09-26T10:15:47.027Z,100081.41
2018-09-26T10:18:15.292Z,100077.73
2018-09-26T10:20:43.576Z,100071.07
2018-09-26T10:23:12.003Z,100074.13
2018-09-26T10:25:40.308Z,100073.64
2018-09-26T10:28:08.614Z,100067.66
2018-09-26T10:30:36.973Z,100067.50
2018-09-26T10:33:05.320Z,100066.06
2018-09-26T10:35:33.741Z,100059.44
2018-09-26T10:38:01.982Z,100057.37
2018-09-26T10:40:30.947Z,100053.38
2018-09-26T10:42:59.347Z,100052.33
2018-09-26T10:45:27.978Z,100051.70
2018-09-26T10:47:56.295Z,100053.75
2018-09-26T10:50:24.918Z,100051.03
2018-09-26T10:52:53.307Z,100054.89
2018-09-26T10:55:22.706Z,100049.70
2018-09-26T10:57:51.117Z,100053.73
2018-09-26T11:00:19.442Z,100045.73
2018-09-26T11:02:47.790Z,100044.73
2018-09-26T11:05:16.115Z,100042.33
2018-09-26T11:07:44.515Z,100043.77
2018-09-26T11:10:13.028Z,100039.11
2018-09-26T11:12:41.339Z,100036.89
2018-09-26T11:15:09.783Z,100026.98
2018-09-26T11:17:38.034Z,100025.33
2018-09-26T11:20:06.875Z,100018.94
2018-09-26T11:22:35.169Z,100013.73
2018-09-26T11:25:03.460Z,100004.82
2018-09-26T11:27:31.901Z,100005.77
2018-09-26T11:30:00.221Z,100001.52
2018-09-26T11:32:28.616Z,100003.77
2018-09-26T11:34:56.977Z,99996.56
2018-09-26T11:37:25.416Z,99997.39
2018-09-26T11:39:53.908Z,99995.43
2018-09-26T11:42:22.434Z,99994.49
2018-09-26T11:44:50.919Z,99986.22
2018-09-26T11:47:19.165Z,99986.05
2018-09-26T11:49:47.487Z,99983.97
2018-09-26T11:52:15.835Z,99986.14
2018-09-26T11:54:44.104Z,99989.41
2018-09-26T11:57:12.414Z,99982.54
2018-09-26T11:59:40.769Z,99976.95
2018-09-26T12:02:09.116Z,99973.33
2018-09-26T12:04:37.434Z,99984.51
2018-09-26T12:07:05.814Z,99977.08
2018-09-26T12:09:34.076Z,99970.58
2018-09-26T12:12:02.402Z,99965.86
2018-09-26T12:14:30.728Z,99961.98
2018-09-26T12:16:59.081Z,99960.36
2018-09-26T12:19:27.607Z,99954.41
2018-09-26T12:21:55.826Z,99954.81
2018-09-26T12:24:24.146Z,99952.04
2018-09-26T12:26:52.585Z,99942.23
2018-09-26T12:29:20.875Z,99951.64
2018-09-26T12:31:49.512Z,99941.79
2018-09-26T12:34:17.805Z,99947.39
2018-09-26T12:36:46.321Z,99946.59
2018-09-26T12:39:14.620Z,99941.80
2018-09-26T12:41:43.086Z,99933.84
2018-09-26T12:44:11.431Z,99933.92
2018-09-26T12:46:39.707Z,99932.34
2018-09-26T12:49:08.133Z,99924.71
2018-09-26T12:51:36.776Z,99922.05
2018-09-26T12:54:06.094Z,99918.80
2018-09-26T12:56:34.251Z,99921.19
2018-09-26T12:59:02.576Z,99921.91
2018-09-26T13:01:30.895Z,99913.80
2018-09-26T13:03:59.217Z,99918.31
2018-09-26T13:06:27.580Z,99920.33
2018-09-26T13:08:55.890Z,99914.59
2018-09-26T13:11:24.153Z,99913.91
2018-09-26T13:13:52.482Z,99909.81
2018-09-26T13:16:20.931Z,99909.41
2018-09-26T13:18:49.290Z,99905.38
2018-09-26T13:21:18.494Z,99898.45
2018-09-26T13:23:46.986Z,99907.88
2018-09-26T13:26:15.243Z,99900.23
2018-09-26T13:28:43.667Z,99893.40
2018-09-26T13:31:11.990Z,99887.55
2018-09-26T13:33:40.291Z,99882.53
2018-09-26T13:36:08.796Z,99882.06
2018-09-26T13:38:39.034Z,99888.50
2018-09-26T13:41:30.566Z,99884.92
2018-09-26T13:43:58.830Z,99878.45
2018-09-26T13:46:27.181Z,99878.05
2018-09-26T13:48:55.417Z,99879.43
2018-09-26T13:51:23.800Z,99875.42
2018-09-26T13:53:52.225Z,99870.61
2018-09-26T13:56:20.564Z,99867.89
2018-09-26T13:58:48.943Z,99872.61
2018-09-26T14:01:17.603Z,99868.80
2018-09-26T14:03:46.680Z,99866.44
2018-09-26T14:06:15.371Z,99860.11
2018-09-26T14:08:43.631Z,99861.78
2018-09-26T14:11:12.328Z,99866.92
2018-09-26T14:13:40.662Z,99856.13
2018-09-26T14:16:08.938Z,99863.92
2018-09-26T14:18:38.204Z,99853.73
2018-09-26T14:21:06.846Z,99858.70
2018-09-26T14:23:35.138Z,99856.89
2018-09-26T14:26:03.534Z,99853.38
2018-09-26T14:28:31.905Z,99847.34
2018-09-26T14:31:00.425Z,99839.78
2018-09-26T14:33:28.759Z,99842.39
2018-09-26T14:35:57.044Z,99839.13
2018-09-26T14:38:25.422Z,99839.81
2018-09-26T14:40:53.694Z,99835.65
2018-09-26T14:43:22.018Z,99834.92
2018-09-26T14:45:50.685Z,99830.08
2018-09-26T14:48:18.918Z,99836.23
2018-09-26T14:50:47.225Z,99838.33
2018-09-26T14:53:15.642Z,99837.31
2018-09-26T14:55:44.146Z,99836.09
2018-09-26T14:58:12.476Z,99836.38
2018-09-26T15:00:41.067Z,99839.98
2018-09-26T15:03:09.394Z,99840.11
2018-09-26T15:05:37.687Z,99840.08
2018-09-26T15:08:06.140Z,99836.67
2018-09-26T15:10:34.472Z,99834.95
2018-09-26T15:13:02.783Z,99832.70
2018-09-26T15:15:31.069Z,99829.92
2018-09-26T15:17:59.434Z,99830.44
2018-09-26T15:20:28.152Z,99841.09
2018-09-26T15:22:56.723Z,99835.71
2018-09-26T15:25:24.981Z,99837.49
2018-09-26T15:27:53.596Z,99841.39
2018-09-26T15:30:22.012Z,99838.75
2018-09-26T15:32:50.322Z,99829.78
2018-09-26T15:35:18.748Z,99827.88
2018-09-26T15:37:47.031Z,99818.02
2018-09-26T15:40:15.531Z,99822.94
2018-09-26T15:42:44.199Z,99826.68
2018-09-26T15:45:12.628Z,99829.47
2018-09-26T15:47:41.081Z,99831.68
2018-09-26T15:50:09.821Z,99834.55
2018-09-26T15:52:38.687Z,99824.97
2018-09-26T15:55:07.100Z,99827.34
2018-09-26T15:57:35.803Z,99826.33
2018-09-26T16:00:04.356Z,99825.30
2018-09-26T16:02:32.746Z,99827.43
2018-09-26T16:05:01.151Z,99824.86
2018-09-26T16:07:32.435Z,99828.99
2018-09-26T16:10:00.757Z,99819.71
2018-09-26T16:12:29.126Z,99824.13
2018-09-26T16:14:57.540Z,99826.42
2018-09-26T16:17:25.858Z,99825.27
2018-09-26T16:19:54.171Z,99823.44
2018-09-26T16:22:22.553Z,99826.42
2018-09-26T16:24:50.842Z,99827.23
2018-09-26T16:27:19.114Z,99830.15
2018-09-26T16:29:47.434Z,99830.56
2018-09-26T16:32:15.824Z,99819.97
2018-09-26T16:34:44.086Z,99816.38
2018-09-26T16:37:12.340Z,99825.43
2018-09-26T16:39:40.876Z,99822.77
2018-09-26T16:42:09.197Z,99827.02
2018-09-26T16:44:37.525Z,99830.23
2018-09-26T16:47:06.227Z,99831.97
2018-09-26T16:49:34.536Z,99829.95
2018-09-26T16:52:02.936Z,99833.45
2018-09-26T16:54:31.359Z,99832.17
2018-09-26T16:56:59.966Z,99838.08
2018-09-26T16:59:28.308Z,99838.84
2018-09-26T17:01:56.640Z,99843.33
2018-09-26T17:04:25.230Z,99841.77
2018-09-26T17:06:53.470Z,99845.70
2018-09-26T17:09:21.844Z,99842.52
2018-09-26T17:11:50.135Z,99836.80
2018-09-26T17:14:18.465Z,99835.44
2018-09-26T17:16:46.749Z,99841.64
2018-09-26T17:19:14.984Z,99849.78
2018-09-26T17:21:43.609Z,99852.19
2018-09-26T17:24:12.091Z,99844.44
2018-09-26T17:26:41.022Z,99853.17
2018-09-26T17:29:09.546Z,99850.23
2018-09-26T17:31:37.812Z,99851.57
2018-09-26T17:34:06.146Z,99858.13
2018-09-26T17:36:34.402Z,99857.05
2018-09-26T17:39:02.756Z,99861.05
2018-09-26T17:41:31.255Z,99858.11
2018-09-26T17:43:59.563Z,99861.25
2018-09-26T17:46:27.948Z,99867.75
2018-09-26T17:48:56.480Z,99869.27
2018-09-26T17:51:24.840Z,99865.03
2018-09-26T17:53:53.111Z,99862.81
2018-09-26T17:56:21.663Z,99864.30
2018-09-26T17:58:50.056Z,99855.82
2018-09-26T18:01:18.412Z,99861.52
2018-09-26T18:03:46.762Z,99863.92
2018-09-26T18:06:15.368Z,99869.48
2018-09-26T18:08:43.694Z,99870.78
2018-09-26T18:11:12.026Z,99869.81
2018-09-26T18:13:41.040Z,99864.27
2018-09-26T18:16:09.524Z,99866.11
2018-09-26T18:18:37.969Z,99870.33
2018-09-26T18:21:06.380Z,99869.40
2018-09-26T18:23:34.877Z,99872.46
2018-09-26T18:26:03.334Z,99873.16
2018-09-26T18:28:32.020Z,99874.00
2018-09-26T18:31:00.456Z,99885.22
2018-09-26T18:33:28.867Z,99887.83
2018-09-26T18:35:57.348Z,99891.80
2018-09-26T18:38:25.771Z,99886.89
2018-09-26T18:40:54.070Z,99887.51
2018-09-26T18:43:22.520Z,99895.02
2018-09-26T18:45:50.813Z,99891.59
2018-09-26T18:48:19.108Z,99898.75
2018-09-26T18:50:47.392Z,99892.11
2018-09-26T18:53:15.726Z,99901.37
2018-09-26T18:55:44.020Z,99899.10
2018-09-26T18:58:12.462Z,99899.62
2018-09-26T19:00:40.991Z,99903.78
2018-09-26T19:03:09.350Z,99898.55
2018-09-26T19:05:37.700Z,99899.56
2018-09-26T19:08:06.021Z,99902.50
2018-09-26T19:10:34.395Z,99907.16
2018-09-26T19:13:02.716Z,99904.17
2018-09-26T19:15:31.109Z,99909.08
2018-09-26T19:17:59.401Z,99905.97
2018-09-26T19:20:27.729Z,99911.41
2018-09-26T19:22:56.084Z,99909.14
2018-09-26T19:25:24.467Z,99907.70
2018-09-26T19:27:52.902Z,99906.38
2018-09-26T19:30:21.143Z,99910.90
2018-09-26T19:32:49.590Z,99910.81
2018-09-26T19:35:17.919Z,99904.39
2018-09-26T19:37:46.419Z,99906.41
2018-09-26T19:40:14.764Z,99910.39
2018-09-26T19:42:43.060Z,99905.70
2018-09-26T19:45:11.486Z,99908.17
2018-09-26T19:47:39.799Z,99908.66
2018-09-26T19:50:08.232Z,99913.19
2018-09-26T19:52:36.635Z,99916.20
2018-09-26T19:55:05.043Z,99918.20
2018-09-26T19:57:33.487Z,99916.46
2018-09-26T20:00:01.896Z,99917.22
2018-09-26T20:02:30.295Z,99926.13
2018-09-26T20:04:58.981Z,99921.69
2018-09-26T20:07:27.289Z,99919.58
2018-09-26T20:09:55.655Z,99917.42
2018-09-26T20:12:24.021Z,99916.80
2018-09-26T20:14:52.322Z,99915.15
2018-09-26T20:17:20.785Z,99915.34
2018-09-26T20:19:49.315Z,99920.23
2018-09-26T20:22:17.600Z,99928.02
2018-09-26T20:24:45.889Z,99924.56
2018-09-26T20:27:14.499Z,99923.89
2018-09-26T20:29:42.839Z,99926.27
2018-09-26T20:32:10.972Z,99923.61
2018-09-26T20:34:39.350Z,99931.29
2018-09-26T20:37:08.206Z,99931.17
2018-09-26T20:39:36.445Z,99928.72
2018-09-26T20:42:04.792Z,99922.43
2018-09-26T20:44:33.170Z,99922.31
2018-09-26T20:47:01.516Z,99921.64
2018-09-26T20:49:29.876Z,99917.06
2018-09-26T20:51:58.221Z,99914.58
2018-09-26T20:54:26.605Z,99919.00
2018-09-26T20:56:54.905Z,99926.79
2018-09-26T20:59:23.196Z,99933.01
2018-09-26T21:01:51.629Z,99925.03
2018-09-26T21:04:19.957Z,99928.09
2018-09-26T21:06:48.420Z,99923.93
2018-09-26T21:09:16.810Z,99926.75
2018-09-26T21:11:45.206Z,99932.09
2018-09-26T21:14:13.603Z,99931.59
2018-09-26T21:16:41.962Z,99930.45
2018-09-26T21:19:10.279Z,99927.46
2018-09-26T21:21:38.630Z,99920.30
2018-09-26T21:24:06.965Z,99916.17
2018-09-26T21:26:35.346Z,99916.17
2018-09-26T21:29:04.710Z,99916.38
2018-09-26T21:31:34.091Z,99917.16
2018-09-26T21:34:03.219Z,99915.23
2018-09-26T21:36:31.535Z,99916.56
2018-09-26T21:39:00.126Z,99916.56
2018-09-26T21:41:28.519Z,99920.00
2018-09-26T21:43:56.812Z,99916.97
2018-09-26T21:46:25.097Z,99912.70
2018-09-26T21:48:53.408Z,99927.16
2018-09-26T21:51:22.612Z,99913.55
2018-09-26T21:53:51.237Z,99916.73
2018-09-26T21:56:19.548Z,99921.55
2018-09-26T21:58:47.835Z,99917.32
2018-09-26T22:01:17.270Z,99914.38
2018-09-26T22:03:45.672Z,99918.40
2018-09-26T22:06:13.995Z,99911.80
2018-09-26T22:08:42.334Z,99916.91
2018-09-26T22:11:10.754Z,99917.08
2018-09-26T22:13:39.080Z,99908.25
2018-09-26T22:16:07.340Z,99903.25
2018-09-26T22:18:35.721Z,99907.92
2018-09-26T22:21:04.289Z,99910.98
2018-09-26T22:23:32.708Z,99908.62
2018-09-26T22:26:01.007Z,99906.40
2018-09-26T22:28:29.352Z,99911.34
2018-09-26T22:30:57.706Z,99907.36
2018-09-26T22:33:26.181Z,99910.55
2018-09-26T22:35:54.557Z,99907.84
2018-09-26T22:38:22.892Z,99911.30
2018-09-26T22:40:51.244Z,99908.50
2018-09-26T22:43:19.618Z,99917.37
2018-09-26T22:45:47.907Z,99910.42
2018-09-26T22:48:16.901Z,99914.48
2018-09-26T22:50:45.194Z,99909.23
2018-09-26T22:53:13.527Z,99915.38
2018-09-26T22:55:41.894Z,99914.70
2018-09-26T22:58:10.229Z,99910.95
2018-09-26T23:00:38.544Z,99915.91
2018-09-26T23:03:07.125Z,99910.26
2018-09-26T23:05:35.423Z,99914.55
2018-09-26T23:08:03.722Z,99917.36
2018-09-26T23:10:32.207Z,99911.65
2018-09-26T23:13:00.578Z,99910.08
2018-09-26T23:15:29.022Z,99904.98
2018-09-26T23:17:57.446Z,99899.88
2018-09-26T23:20:25.775Z,99903.30
2018-09-26T23:22:54.145Z,99899.83
2018-09-26T23:25:22.589Z,99902.21
2018-09-26T23:27:50.903Z,99896.98
2018-09-26T23:30:19.196Z,99893.13
2018-09-26T23:32:47.764Z,99895.54
2018-09-26T23:35:16.057Z,99891.47
2018-09-26T23:37:44.463Z,99886.53
2018-09-26T23:40:12.837Z,99895.05
2018-09-26T23:42:41.098Z,99889.86
2018-09-26T23:45:09.619Z,99896.94
2018-09-26T23:47:37.919Z,99894.11
2018-09-26T23:50:06.499Z,99890.37
2018-09-26T23:52:34.994Z,99887.81
2018-09-26T23:55:03.337Z,99890.95
2018-09-26T23:57:31.696Z,99885.27
